Time;durP1;ratioP1;P1;durP2;ratioP2;P2;SDS_P1;SDS_P2;PMS_P1;PMS_P2;Temp;Humidity;BMP_temperature;BMP_pressure;BME280_temperature;BME280_humidity;BME280_pressure;Samples;Min_cycle;Max_cycle;Signal;HPM_P1;HPM_P2
2021/12/08 00:00:32;;;;;;;4.70;2.20;;;5.90;99.90;;;;;;5031223;28;20229;-86
2021/12/08 00:02:59;;;;;;;2.83;1.63;;;5.80;99.90;;;;;;5029803;28;20511;-85
2021/12/08 00:05:26;;;;;;;4.23;2.10;;;5.70;99.90;;;;;;5031055;28;20958;-86
2021/12/08 00:07:52;;;;;;;6.87;2.73;;;5.60;99.90;;;;;;5031265;28;20427;-85
2021/12/08 00:13:03;;;;;;;4.40;1.60;;;5.40;99.90;;;;;;5032190;28;20418;-86
2021/12/08 00:15:34;;;;;;;3.93;1.97;;;5.30;99.90;;;;;;5030665;28;20420;-87
2021/12/08 00:18:02;;;;;;;5.13;3.27;;;5.20;99.90;;;;;;5032219;28;20416;-86
2021/12/08 00:20:30;;;;;;;2.90;1.63;;;5.10;99.90;;;;;;5030973;28;20532;-86
2021/12/08 00:22:56;;;;;;;5.07;1.93;;;5.10;99.90;;;;;;5030409;28;20517;-86
2021/12/08 00:25:22;;;;;;;4.63;2.43;;;5.00;99.90;;;;;;5030430;28;20446;-87
2021/12/08 00:27:49;;;;;;;3.97;2.03;;;5.00;99.90;;;;;;5030373;28;20817;-86
2021/12/08 00:30:18;;;;;;;5.30;2.20;;;5.00;99.90;;;;;;5030382;28;20460;-86
2021/12/08 00:32:44;;;;;;;5.10;1.83;;;5.00;99.90;;;;;;5031334;28;20423;-86
2021/12/08 00:35:11;;;;;;;6.97;2.23;;;5.00;99.90;;;;;;5030361;28;20508;-86
2021/12/08 00:37:37;;;;;;;4.77;2.00;;;5.00;99.90;;;;;;5030607;28;20444;-86
2021/12/08 00:40:06;;;;;;;5.80;2.57;;;5.00;99.90;;;;;;5030349;28;20477;-86
2021/12/08 00:42:32;;;;;;;4.40;1.90;;;5.00;99.90;;;;;;5030174;28;20938;-86
2021/12/08 00:44:59;;;;;;;5.80;2.30;;;5.00;99.90;;;;;;5030204;28;20428;-86
2021/12/08 00:47:26;;;;;;;4.90;1.70;;;5.00;99.90;;;;;;5030070;28;20209;-86
2021/12/08 00:49:52;;;;;;;3.40;1.53;;;5.00;99.90;;;;;;5030136;28;20461;-86
2021/12/08 00:52:18;;;;;;;5.60;2.17;;;5.00;99.90;;;;;;5030275;28;20420;-86
2021/12/08 00:54:44;;;;;;;3.93;1.90;;;5.10;99.90;;;;;;5030087;28;20423;-86
2021/12/08 00:57:10;;;;;;;7.03;1.60;;;5.10;99.90;;;;;;5030086;28;20432;-86
2021/12/08 00:59:37;;;;;;;4.40;1.40;;;5.10;99.90;;;;;;5030014;28;20177;-86
2021/12/08 01:02:03;;;;;;;4.03;1.60;;;5.10;99.90;;;;;;5030036;28;20452;-85
2021/12/08 01:04:30;;;;;;;3.77;1.60;;;5.20;99.90;;;;;;5029745;28;20438;-86
2021/12/08 01:06:56;;;;;;;3.40;1.97;;;5.20;99.90;;;;;;5030117;28;20940;-86
2021/12/08 01:09:22;;;;;;;3.27;1.60;;;5.20;99.90;;;;;;5029719;28;20513;-86
2021/12/08 01:11:48;;;;;;;3.07;1.60;;;5.20;99.90;;;;;;5029990;28;20429;-85
2021/12/08 01:14:14;;;;;;;4.50;1.60;;;5.30;99.90;;;;;;5030184;28;20183;-86
2021/12/08 01:16:40;;;;;;;3.70;1.80;;;5.30;99.90;;;;;;5033668;28;20214;-86
2021/12/08 01:19:06;;;;;;;4.47;1.60;;;5.40;99.90;;;;;;5033558;28;20428;-86
2021/12/08 01:21:32;;;;;;;4.93;1.60;;;5.40;99.90;;;;;;5033224;28;20852;-86
2021/12/08 01:23:58;;;;;;;4.50;1.77;;;5.40;99.90;;;;;;5033596;28;20654;-86
2021/12/08 01:26:25;;;;;;;7.50;1.83;;;5.50;99.90;;;;;;5033199;28;20203;-86
2021/12/08 01:28:55;;;;;;;3.10;1.70;;;5.50;99.90;;;;;;5033403;28;20433;-86
2021/12/08 01:31:21;;;;;;;4.30;1.40;;;5.50;99.90;;;;;;5033007;28;20461;-86
2021/12/08 01:33:47;;;;;;;4.73;1.63;;;5.60;99.90;;;;;;5033368;28;20419;-86
2021/12/08 01:36:13;;;;;;;3.37;1.70;;;5.60;99.90;;;;;;5033119;28;20849;-86
2021/12/08 01:38:38;;;;;;;4.10;1.90;;;5.60;99.90;;;;;;5033146;28;20512;-86
2021/12/08 01:41:05;;;;;;;3.43;2.17;;;5.60;99.90;;;;;;5033068;28;20241;-86
2021/12/08 01:43:41;;;;;;;3.50;1.93;;;5.60;99.90;;;;;;5032989;28;20185;-86
2021/12/08 01:46:10;;;;;;;2.90;1.50;;;5.70;99.90;;;;;;5033137;28;20969;-86
2021/12/08 01:48:40;;;;;;;2.50;1.50;;;5.70;99.90;;;;;;5032895;28;20420;-86
2021/12/08 01:51:10;;;;;;;3.43;1.53;;;5.70;99.90;;;;;;5032749;28;20876;-85
2021/12/08 01:53:37;;;;;;;3.63;1.80;;;5.70;99.90;;;;;;5032646;28;20418;-86
2021/12/08 01:56:04;;;;;;;3.43;1.83;;;5.70;99.90;;;;;;5032838;28;20439;-85
2021/12/08 01:58:30;;;;;;;2.30;1.20;;;5.70;99.90;;;;;;5032777;28;20418;-86
2021/12/08 02:01:00;;;;;;;3.53;1.50;;;5.80;99.90;;;;;;5032655;28;20429;-86
2021/12/08 02:03:27;;;;;;;3.00;1.57;;;5.80;99.90;;;;;;5032747;28;20425;-86
2021/12/08 02:05:54;;;;;;;3.63;1.50;;;5.80;99.90;;;;;;5032446;28;20556;-86
2021/12/08 02:08:20;;;;;;;7.83;2.60;;;5.80;99.90;;;;;;5032617;28;20480;-86
2021/12/08 02:10:46;;;;;;;4.00;1.40;;;5.80;99.90;;;;;;5032411;28;20473;-85
2021/12/08 02:13:13;;;;;;;4.73;1.47;;;5.80;99.90;;;;;;5032635;28;20828;-86
2021/12/08 02:15:40;;;;;;;3.30;1.67;;;5.80;99.90;;;;;;5032120;28;20425;-86
2021/12/08 02:18:11;;;;;;;6.10;2.13;;;5.80;99.90;;;;;;5032596;28;20509;-86
2021/12/08 02:20:38;;;;;;;3.17;1.50;;;5.80;99.90;;;;;;5032183;28;20516;-86
2021/12/08 02:23:04;;;;;;;3.33;1.20;;;5.80;99.90;;;;;;5032349;28;20425;-86
2021/12/08 02:25:30;;;;;;;4.93;1.60;;;5.80;99.90;;;;;;5032442;28;20430;-86
2021/12/08 02:27:59;;;;;;;6.00;1.87;;;5.80;99.90;;;;;;5031722;28;20517;-86
2021/12/08 02:30:32;;;;;;;3.10;1.60;;;5.80;99.90;;;;;;5032019;28;20461;-86
2021/12/08 02:46:53;;;;;;;3.97;1.57;;;5.80;99.90;;;;;;5033616;28;20488;-86
2021/12/08 02:49:21;;;;;;;2.93;1.33;;;5.80;99.90;;;;;;5031668;28;20426;-86
2021/12/08 02:51:48;;;;;;;2.43;1.30;;;5.80;99.90;;;;;;5031846;28;20903;-86
2021/12/08 02:54:14;;;;;;;3.43;1.70;;;5.80;99.90;;;;;;5031460;28;20435;-85
2021/12/08 02:56:40;;;;;;;2.60;1.40;;;5.80;99.90;;;;;;5031707;28;20447;-86
2021/12/08 02:59:06;;;;;;;3.90;1.43;;;5.80;99.90;;;;;;5031371;28;20812;-86
2021/12/08 03:01:32;;;;;;;3.20;1.60;;;5.80;99.90;;;;;;5031573;28;20184;-86
2021/12/08 03:03:58;;;;;;;3.43;1.70;;;5.80;99.90;;;;;;5031305;28;20418;-86
2021/12/08 03:06:24;;;;;;;2.80;1.60;;;5.80;99.90;;;;;;5031553;28;20475;-86
2021/12/08 03:08:50;;;;;;;2.63;1.43;;;5.90;99.90;;;;;;5031282;28;20272;-86
2021/12/08 03:11:16;;;;;;;3.30;1.40;;;5.90;99.90;;;;;;5052767;22;20545;-74
2021/12/08 03:14:00;;;;;;;2.40;1.20;;;5.80;99.90;;;;;;5028060;28;20775;-74
2021/12/08 03:16:30;;;;;;;2.60;1.40;;;5.90;99.90;;;;;;5025395;28;20497;-74
2021/12/08 03:18:56;;;;;;;2.80;1.30;;;5.90;99.90;;;;;;5031128;28;20417;-73
2021/12/08 03:21:28;;;;;;;4.03;1.43;;;5.90;99.90;;;;;;5030795;28;20496;-74
2021/12/08 03:24:43;;;;;;;3.23;1.40;;;5.90;99.90;;;;;;5031466;28;20424;-74
2021/12/08 03:26:50;;;;;;;2.53;1.37;;;6.00;99.90;;;;;;5021354;28;20426;-74
2021/12/08 03:32:30;;;;;;;2.60;1.40;;;6.00;99.90;;;;;;4970897;28;20455;-73
2021/12/08 03:34:56;;;;;;;4.90;1.60;;;6.00;99.90;;;;;;5023547;28;20429;-74
2021/12/08 03:37:29;;;;;;;3.13;1.50;;;6.00;99.90;;;;;;5030607;28;20430;-73
2021/12/08 03:39:56;;;;;;;3.23;1.80;;;6.00;99.90;;;;;;5030755;28;20183;-74
2021/12/08 03:42:26;;;;;;;2.50;1.40;;;5.90;99.90;;;;;;5030758;28;20438;-73
2021/12/08 03:44:59;;;;;;;3.60;1.57;;;5.90;99.90;;;;;;5031159;28;20984;-74
2021/12/08 03:47:28;;;;;;;3.13;1.50;;;5.90;99.90;;;;;;5030660;28;20421;-74
2021/12/08 03:49:59;;;;;;;2.90;1.23;;;5.90;99.90;;;;;;5030514;28;20917;-74
2021/12/08 03:52:26;;;;;;;2.60;1.47;;;5.90;99.90;;;;;;5030475;28;20521;-74
2021/12/08 03:54:52;;;;;;;3.33;1.47;;;5.90;99.90;;;;;;5030665;28;20430;-74
2021/12/08 03:57:17;;;;;;;4.37;1.60;;;5.90;99.90;;;;;;5030631;28;20512;-74
2021/12/08 03:59:43;;;;;;;4.30;1.63;;;6.00;99.90;;;;;;5030267;28;20238;-74
2021/12/08 04:02:09;;;;;;;3.37;1.40;;;6.00;99.90;;;;;;5030508;28;20244;-74
2021/12/08 04:04:48;;;;;;;3.50;1.80;;;6.00;99.90;;;;;;5030368;28;20188;-74
2021/12/08 04:07:15;;;;;;;2.63;1.50;;;6.00;99.90;;;;;;5030566;28;20933;-74
2021/12/08 04:09:43;;;;;;;2.53;1.47;;;6.10;99.90;;;;;;5030127;28;20426;-73
2021/12/08 04:12:16;;;;;;;3.10;1.47;;;6.10;99.90;;;;;;5030270;28;20521;-74
2021/12/08 04:14:53;;;;;;;3.70;1.67;;;6.20;99.90;;;;;;5030401;28;20506;-73
2021/12/08 04:17:27;;;;;;;6.70;1.80;;;6.20;99.90;;;;;;5030360;28;20498;-74
2021/12/08 04:19:56;;;;;;;3.37;1.90;;;6.30;99.90;;;;;;5030179;28;20448;-74
2021/12/08 04:22:28;;;;;;;2.60;1.43;;;6.30;99.90;;;;;;5030304;28;20438;-74
2021/12/08 04:24:55;;;;;;;2.37;1.33;;;6.40;99.90;;;;;;5030471;28;20425;-74
2021/12/08 04:27:29;;;;;;;4.83;1.70;;;6.50;99.90;;;;;;5030104;28;20465;-74
2021/12/08 04:29:55;;;;;;;3.23;1.83;;;6.50;99.90;;;;;;5030049;28;20562;-73
2021/12/08 04:32:24;;;;;;;2.73;1.23;;;6.60;99.90;;;;;;5030438;28;20478;-74
2021/12/08 04:34:53;;;;;;;2.93;1.73;;;6.70;99.90;;;;;;5030401;28;20446;-73
2021/12/08 04:37:29;;;;;;;2.57;1.30;;;6.70;99.90;;;;;;5030170;28;20510;-74
2021/12/08 04:45:57;;;;;;;3.33;2.17;;;6.70;99.90;;;;;;5031698;28;20937;-74
2021/12/08 04:48:45;;;;;;;4.50;1.70;;;6.60;99.90;;;;;;5030135;28;20478;-74
2021/12/08 05:04:43;;;;;;;4.40;2.13;;;6.30;99.90;;;;;;5035495;28;20927;-74
2021/12/08 05:09:44;;;;;;;4.53;2.40;;;6.30;99.90;;;;;;5034580;28;20760;-73
2021/12/08 05:12:12;;;;;;;3.50;2.30;;;6.30;99.90;;;;;;5033415;28;20443;-73
2021/12/08 05:14:49;;;;;;;3.60;2.37;;;6.30;99.90;;;;;;5033526;28;20710;-74
2021/12/08 05:17:19;;;;;;;3.87;2.10;;;6.20;99.90;;;;;;5033844;28;20411;-74
2021/12/08 05:19:48;;;;;;;3.50;2.00;;;6.10;99.90;;;;;;5033870;28;20421;-74
2021/12/08 05:22:33;;;;;;;4.10;2.10;;;6.00;99.90;;;;;;5033511;28;20453;-74
2021/12/08 05:25:02;;;;;;;5.20;2.10;;;6.00;99.90;;;;;;5033418;28;20986;-74
2021/12/08 05:27:40;;;;;;;9.53;2.60;;;5.90;99.90;;;;;;5033398;28;20505;-74
2021/12/08 05:30:15;;;;;;;4.10;2.80;;;5.80;99.90;;;;;;5033275;28;20872;-74
2021/12/08 05:32:41;;;;;;;6.70;3.50;;;5.80;99.90;;;;;;5033161;28;20815;-73
2021/12/08 05:35:10;;;;;;;3.60;2.50;;;5.90;99.90;;;;;;5033323;28;20409;-73
2021/12/08 05:37:36;;;;;;;5.63;2.80;;;6.00;99.90;;;;;;5033134;28;20434;-74
2021/12/08 05:40:06;;;;;;;4.57;2.10;;;6.00;99.90;;;;;;5032989;28;20423;-73
2021/12/08 05:42:35;;;;;;;4.63;2.90;;;6.10;99.90;;;;;;5032920;28;20957;-74
2021/12/08 05:45:09;;;;;;;4.60;2.83;;;6.10;99.90;;;;;;5032969;28;20934;-74
2021/12/08 05:47:36;;;;;;;7.00;2.50;;;6.20;99.90;;;;;;5032972;28;20424;-73
2021/12/08 05:50:02;;;;;;;4.73;2.67;;;6.20;99.90;;;;;;5032749;28;20462;-74
2021/12/08 05:52:28;;;;;;;7.87;3.30;;;6.10;99.90;;;;;;5032702;28;20438;-74
2021/12/08 05:54:54;;;;;;;5.30;2.67;;;6.10;99.90;;;;;;5032845;28;20425;-74
2021/12/08 05:57:36;;;;;;;6.23;2.90;;;6.10;99.90;;;;;;5032719;28;20269;-74
2021/12/08 06:00:10;;;;;;;4.10;2.57;;;6.00;99.90;;;;;;5032507;28;20433;-74
2021/12/08 06:02:37;;;;;;;6.40;2.33;;;6.00;99.90;;;;;;5031289;28;20472;-74
2021/12/08 06:05:07;;;;;;;3.93;2.60;;;5.90;99.90;;;;;;5032600;28;20471;-74
2021/12/08 06:07:33;;;;;;;4.50;2.77;;;5.90;99.90;;;;;;5032648;28;20524;-74
2021/12/08 06:10:02;;;;;;;7.27;2.30;;;5.80;99.90;;;;;;5031906;28;20547;-73
2021/12/08 06:12:28;;;;;;;5.57;2.50;;;5.80;99.90;;;;;;5032430;28;20698;-74
2021/12/08 06:14:56;;;;;;;6.20;2.77;;;5.80;99.90;;;;;;5032365;28;20438;-73
2021/12/08 06:17:25;;;;;;;8.03;3.10;;;5.80;99.90;;;;;;5032402;28;20509;-74
2021/12/08 06:19:51;;;;;;;4.97;2.10;;;5.80;99.90;;;;;;5032112;28;20422;-74
2021/12/08 06:22:20;;;;;;;5.07;2.63;;;5.80;99.90;;;;;;5032228;28;20434;-74
2021/12/08 06:24:47;;;;;;;5.13;3.10;;;5.80;99.90;;;;;;5032254;28;20422;-74
2021/12/08 06:27:14;;;;;;;6.00;2.60;;;5.80;99.90;;;;;;5032105;28;20423;-74
2021/12/08 06:29:41;;;;;;;4.90;2.67;;;5.80;99.90;;;;;;5031877;28;20418;-74
2021/12/08 06:32:09;;;;;;;6.73;3.03;;;5.90;99.90;;;;;;5031543;28;20445;-74
2021/12/08 06:34:38;;;;;;;4.70;2.80;;;5.90;99.90;;;;;;5031793;28;20418;-73
2021/12/08 06:37:17;;;;;;;5.53;2.37;;;5.90;99.90;;;;;;5031794;28;20432;-74
2021/12/08 06:39:50;;;;;;;5.50;2.80;;;5.90;99.90;;;;;;5032028;28;20948;-74
2021/12/08 06:42:25;;;;;;;4.60;2.20;;;6.00;99.90;;;;;;5031842;28;20442;-75
2021/12/08 06:44:53;;;;;;;6.87;2.30;;;6.00;99.90;;;;;;5032069;28;20413;-73
2021/12/08 06:47:24;;;;;;;5.13;2.93;;;6.00;99.90;;;;;;5031581;28;20426;-73
2021/12/08 06:49:53;;;;;;;5.63;2.30;;;6.10;99.90;;;;;;5031671;28;20422;-73
2021/12/08 06:52:28;;;;;;;4.03;2.60;;;6.10;99.90;;;;;;5031919;28;20942;-74
2021/12/08 06:55:03;;;;;;;7.13;3.30;;;6.10;99.90;;;;;;5031888;28;20431;-73
2021/12/08 06:57:34;;;;;;;6.63;2.73;;;6.10;99.90;;;;;;5031990;28;20416;-74
2021/12/08 07:00:18;;;;;;;6.60;3.20;;;6.00;99.90;;;;;;5031327;28;20800;-74
2021/12/08 07:05:30;;;;;;;8.07;4.00;;;5.90;99.90;;;;;;5032999;28;20414;-74
2021/12/08 07:08:08;;;;;;;8.23;2.80;;;5.80;99.90;;;;;;5031667;28;20433;-74
2021/12/08 07:10:39;;;;;;;6.27;2.80;;;5.80;99.90;;;;;;5030998;28;21038;-74
2021/12/08 07:13:12;;;;;;;8.00;3.80;;;5.80;99.90;;;;;;5031135;28;20446;-73
2021/12/08 07:15:45;;;;;;;7.83;4.10;;;5.80;99.90;;;;;;5031492;28;20798;-74
2021/12/08 07:18:25;;;;;;;6.83;3.00;;;5.80;99.90;;;;;;5031602;28;20419;-75
2021/12/08 07:21:01;;;;;;;9.00;2.70;;;5.80;99.90;;;;;;5031120;28;20525;-75
2021/12/08 07:23:36;;;;;;;5.10;3.23;;;5.80;99.90;;;;;;5031402;28;20444;-75
2021/12/08 07:26:06;;;;;;;11.00;4.50;;;5.80;99.90;;;;;;5031752;28;20919;-75
2021/12/08 07:28:33;;;;;;;6.77;3.87;;;5.90;99.90;;;;;;5031631;28;20427;-75
2021/12/08 07:31:09;;;;;;;8.00;3.10;;;5.90;99.90;;;;;;5030867;28;20977;-75
2021/12/08 07:33:36;;;;;;;4.10;2.80;;;5.90;99.90;;;;;;5031449;28;20417;-75
2021/12/08 07:36:10;;;;;;;6.77;3.07;;;6.00;99.90;;;;;;5031339;28;20429;-75
2021/12/08 07:38:37;;;;;;;5.33;2.40;;;6.00;99.90;;;;;;5032001;28;20489;-75
2021/12/08 07:41:17;;;;;;;5.33;2.33;;;6.00;99.90;;;;;;5030867;28;20433;-75
2021/12/08 07:43:51;;;;;;;5.77;2.37;;;6.10;99.90;;;;;;5031130;28;20438;-74
2021/12/08 07:46:28;;;;;;;6.37;2.93;;;6.10;99.90;;;;;;5031252;28;20520;-75
2021/12/08 07:49:00;;;;;;;5.33;2.53;;;6.10;99.90;;;;;;5031076;28;20422;-75
2021/12/08 07:51:57;;;;;;;5.37;2.17;;;6.10;99.90;;;;;;5030843;28;20509;-75
2021/12/08 07:54:24;;;;;;;7.67;3.10;;;6.10;99.90;;;;;;5024884;28;20423;-75
2021/12/08 07:56:53;;;;;;;7.00;3.03;;;6.10;99.90;;;;;;5031135;28;20449;-74
2021/12/08 07:59:20;;;;;;;4.50;2.33;;;6.20;99.90;;;;;;5030497;28;20776;-74
2021/12/08 08:01:55;;;;;;;4.10;2.53;;;6.10;99.90;;;;;;5030834;28;20437;-75
2021/12/08 08:04:24;;;;;;;5.67;1.93;;;6.10;99.90;;;;;;5030798;28;20422;-74
2021/12/08 08:06:54;;;;;;;6.60;2.20;;;6.20;99.90;;;;;;5030865;28;20419;-74
2021/12/08 08:09:34;;;;;;;8.90;2.00;;;6.20;99.90;;;;;;5030566;28;20423;-74
2021/12/08 08:12:04;;;;;;;6.17;2.10;;;6.20;99.90;;;;;;5030763;28;20474;-74
2021/12/08 08:14:38;;;;;;;6.37;2.07;;;6.30;99.90;;;;;;5031222;28;20418;-74
2021/12/08 08:17:06;;;;;;;8.37;2.20;;;6.30;99.90;;;;;;5031143;28;20425;-74
2021/12/08 08:19:32;;;;;;;4.87;2.50;;;6.40;99.90;;;;;;5030863;28;20813;-74
2021/12/08 08:22:05;;;;;;;4.90;2.70;;;6.40;99.90;;;;;;5030493;28;20461;-74
2021/12/08 08:24:32;;;;;;;4.60;2.63;;;6.40;99.90;;;;;;5031186;28;20429;-74
2021/12/08 08:27:00;;;;;;;4.10;2.30;;;6.40;99.90;;;;;;5034635;28;20426;-74
2021/12/08 08:29:26;;;;;;;5.00;2.17;;;6.50;99.90;;;;;;5034457;28;20541;-74
2021/12/08 08:32:05;;;;;;;5.40;2.23;;;6.50;99.90;;;;;;5033416;28;20513;-74
2021/12/08 08:34:36;;;;;;;4.10;2.30;;;6.60;99.90;;;;;;5034014;28;20443;-74
2021/12/08 08:37:05;;;;;;;7.03;2.00;;;6.60;99.90;;;;;;5026564;28;20496;-75
2021/12/08 08:39:34;;;;;;;4.00;2.17;;;6.60;99.90;;;;;;5034045;28;20416;-76
2021/12/08 08:42:13;;;;;;;4.67;2.30;;;6.70;99.90;;;;;;5034112;28;20926;-76
2021/12/08 08:44:46;;;;;;;4.80;2.50;;;6.70;99.90;;;;;;5034607;28;20800;-75
2021/12/08 08:47:18;;;;;;;6.57;2.97;;;6.70;99.90;;;;;;5034170;28;20415;-75
2021/12/08 08:49:45;;;;;;;7.03;2.13;;;6.80;99.90;;;;;;5034068;28;20458;-76
2021/12/08 08:52:17;;;;;;;6.20;2.90;;;6.80;99.90;;;;;;5033964;28;20517;-75
2021/12/08 08:54:45;;;;;;;6.80;2.73;;;6.80;99.90;;;;;;5034450;28;20415;-76
2021/12/08 08:57:25;;;;;;;6.83;2.90;;;6.90;99.90;;;;;;5034053;28;20792;-75
2021/12/08 09:00:06;;;;;;;13.80;3.23;;;7.00;99.90;;;;;;5034020;28;20477;-76
2021/12/08 09:02:38;;;;;;;4.60;2.43;;;7.00;99.90;;;;;;5028578;28;20981;-76
2021/12/08 09:05:15;;;;;;;6.03;2.80;;;7.10;99.90;;;;;;5033724;28;20429;-76
2021/12/08 09:07:46;;;;;;;5.00;3.10;;;7.10;99.90;;;;;;5033294;28;20510;-76
2021/12/08 09:10:25;;;;;;;7.00;2.43;;;7.20;99.90;;;;;;5033207;28;20462;-75
2021/12/08 09:12:56;;;;;;;3.63;2.00;;;7.20;99.90;;;;;;5033219;28;20780;-75
2021/12/08 09:15:28;;;;;;;5.00;2.60;;;7.30;99.90;;;;;;5033279;28;20776;-76
2021/12/08 09:18:04;;;;;;;4.47;2.53;;;7.30;99.90;;;;;;5033354;28;20412;-76
2021/12/08 09:21:13;;;;;;;8.90;3.07;;;7.40;99.90;;;;;;5032726;28;20434;-75
2021/12/08 09:24:06;;;;;;;5.20;3.03;;;7.40;99.90;;;;;;5032872;28;20930;-76
2021/12/08 09:26:35;;;;;;;5.60;3.10;;;7.30;99.90;;;;;;5023505;28;20878;-76
2021/12/08 09:29:13;;;;;;;7.80;3.20;;;7.30;99.90;;;;;;5032878;28;20473;-76
2021/12/08 09:31:54;;;;;;;7.27;3.43;;;7.30;99.90;;;;;;5032443;28;20473;-76
2021/12/08 09:34:32;;;;;;;5.83;2.53;;;7.40;99.90;;;;;;5032869;28;20485;-75
2021/12/08 09:37:02;;;;;;;5.93;2.57;;;7.40;99.90;;;;;;5032611;28;20469;-75
2021/12/08 09:39:42;;;;;;;6.73;2.60;;;7.40;99.90;;;;;;5032725;28;20410;-76
2021/12/08 09:42:27;;;;;;;6.73;3.23;;;7.50;99.90;;;;;;5032546;28;20457;-76
2021/12/08 09:45:10;;;;;;;9.97;2.57;;;7.50;99.90;;;;;;5032272;28;20406;-75
2021/12/08 09:47:36;;;;;;;3.73;1.87;;;7.60;99.90;;;;;;5032726;28;20422;-76
2021/12/08 09:50:07;;;;;;;5.80;2.60;;;7.70;99.90;;;;;;5032181;28;20525;-75
2021/12/08 09:52:34;;;;;;;8.57;2.97;;;7.80;99.90;;;;;;5032687;28;20196;-75
2021/12/08 09:55:01;;;;;;;7.00;2.90;;;7.90;99.90;;;;;;5032418;28;20419;-75
2021/12/08 09:57:28;;;;;;;8.03;3.17;;;8.00;99.90;;;;;;5031969;28;20419;-75
2021/12/08 09:59:55;;;;;;;7.63;2.93;;;8.00;99.90;;;;;;5032449;28;20462;-75
2021/12/08 10:02:32;;;;;;;8.00;4.03;;;8.00;99.90;;;;;;5031868;28;20435;-76
2021/12/08 10:05:06;;;;;;;5.87;4.00;;;8.10;99.90;;;;;;5032353;28;20423;-76
2021/12/08 10:07:32;;;;;;;7.53;3.37;;;8.20;99.90;;;;;;5031953;28;20414;-76
2021/12/08 10:09:58;;;;;;;4.30;2.43;;;8.20;99.90;;;;;;5032350;28;20415;-76
2021/12/08 10:12:24;;;;;;;6.17;2.67;;;8.30;99.90;;;;;;5031830;28;20269;-75
2021/12/08 10:14:50;;;;;;;5.37;2.83;;;8.30;99.90;;;;;;5032246;28;20230;-75
2021/12/08 10:17:18;;;;;;;6.03;2.23;;;8.30;99.90;;;;;;5031812;28;20415;-76
2021/12/08 10:19:46;;;;;;;7.13;2.80;;;8.30;99.90;;;;;;5031650;28;20411;-76
2021/12/08 10:22:20;;;;;;;8.10;2.80;;;8.20;99.90;;;;;;5031720;28;20431;-76
2021/12/08 10:25:14;;;;;;;7.10;2.33;;;8.30;99.90;;;;;;5032035;28;20425;-76
2021/12/08 10:28:17;;;;;;;5.43;2.47;;;8.30;99.90;;;;;;5029313;28;20446;-76
2021/12/08 10:31:03;;;;;;;10.97;3.47;;;8.30;99.90;;;;;;5031448;28;20544;-75
2021/12/08 10:36:46;;;;;;;9.37;2.40;;;8.30;99.90;;;;;;5033175;28;20505;-76
2021/12/08 10:39:20;;;;;;;6.83;2.57;;;8.40;99.90;;;;;;5031632;28;20414;-76
2021/12/08 10:42:11;;;;;;;4.77;2.10;;;8.40;99.90;;;;;;5031933;28;20744;-76
2021/12/08 10:47:37;;;;;;;5.97;3.10;;;8.50;99.90;;;;;;5032122;28;20418;-76
2021/12/08 10:56:09;;;;;;;5.93;2.00;;;8.50;99.90;;;;;;5032991;28;20763;-74
2021/12/08 10:58:39;;;;;;;4.10;2.27;;;8.50;99.90;;;;;;5029778;28;20418;-76
2021/12/08 11:01:16;;;;;;;5.57;2.03;;;8.60;99.90;;;;;;5030751;28;20418;-76
2021/12/08 11:03:43;;;;;;;3.90;1.87;;;8.70;99.90;;;;;;5031056;28;20418;-76
2021/12/08 11:06:13;;;;;;;7.57;2.40;;;8.70;99.90;;;;;;5030935;28;21010;-76
2021/12/08 11:08:47;;;;;;;7.90;2.37;;;8.70;99.90;;;;;;5030886;28;20419;-75
2021/12/08 11:11:20;;;;;;;4.90;2.33;;;8.80;99.90;;;;;;5030390;28;20470;-76
2021/12/08 11:13:56;;;;;;;5.67;2.07;;;8.70;99.90;;;;;;5031375;28;20841;-76
2021/12/08 11:16:32;;;;;;;4.30;2.00;;;8.70;99.90;;;;;;5030663;28;20402;-75
2021/12/08 11:19:00;;;;;;;5.80;2.00;;;8.70;99.90;;;;;;5030997;28;20941;-76
2021/12/08 11:21:36;;;;;;;3.80;1.53;;;8.70;99.90;;;;;;5030108;28;20538;-76
2021/12/08 11:24:06;;;;;;;3.67;2.00;;;8.80;99.90;;;;;;5030841;28;20952;-76
2021/12/08 11:26:37;;;;;;;2.33;1.33;;;8.90;99.90;;;;;;5030443;28;20411;-76
2021/12/08 11:29:06;;;;;;;5.30;1.90;;;8.80;99.90;;;;;;5030734;28;20419;-76
2021/12/08 11:31:39;;;;;;;8.37;2.10;;;8.80;99.90;;;;;;5030190;28;20463;-75
2021/12/08 11:34:36;;;;;;;4.50;1.70;;;8.90;99.90;;;;;;5030325;28;20415;-75
2021/12/08 11:37:21;;;;;;;8.63;2.00;;;9.10;99.90;;;;;;5013472;28;20463;-76
2021/12/08 11:39:55;;;;;;;4.60;1.87;;;9.10;99.90;;;;;;5030609;28;20506;-75
2021/12/08 11:42:29;;;;;;;5.30;1.63;;;9.20;99.90;;;;;;5030291;28;20964;-76
2021/12/08 11:44:58;;;;;;;5.53;2.10;;;9.40;99.90;;;;;;5030571;28;20435;-76
2021/12/08 11:47:28;;;;;;;5.77;1.60;;;9.60;99.90;;;;;;5029713;28;20441;-76
2021/12/08 11:49:56;;;;;;;7.60;2.10;;;9.80;99.90;;;;;;5030147;28;20958;-76
2021/12/08 11:52:32;;;;;;;7.00;2.30;;;9.90;99.90;;;;;;5030059;28;20435;-76
2021/12/08 11:55:07;;;;;;;4.10;1.63;;;9.90;99.90;;;;;;5030499;28;20421;-76
2021/12/08 11:57:39;;;;;;;4.53;1.70;;;9.80;99.90;;;;;;5027918;28;20419;-76
2021/12/08 12:00:24;;;;;;;3.47;1.70;;;9.90;99.90;;;;;;5029833;28;20802;-76
2021/12/08 12:03:00;;;;;;;6.13;1.73;;;9.80;99.90;;;;;;5029806;28;20521;-75
2021/12/08 12:05:37;;;;;;;10.13;2.00;;;9.70;99.90;;;;;;5030112;28;20422;-76
2021/12/08 12:08:08;;;;;;;4.67;1.70;;;9.60;99.90;;;;;;5030286;28;21009;-76
2021/12/08 12:10:38;;;;;;;3.67;1.70;;;9.60;99.90;;;;;;5029671;28;20842;-75
2021/12/08 12:13:08;;;;;;;3.90;1.67;;;9.60;99.90;;;;;;5030099;28;20439;-76
2021/12/08 12:15:36;;;;;;;5.63;2.20;;;9.60;99.90;;;;;;5029999;28;20442;-75
2021/12/08 12:18:03;;;;;;;4.20;2.03;;;9.60;99.90;;;;;;5030064;28;20464;-76
2021/12/08 12:20:41;;;;;;;6.87;1.83;;;9.70;99.90;;;;;;5029621;28;20872;-76
2021/12/08 12:23:44;;;;;;;9.50;2.07;;;9.70;99.90;;;;;;5029658;28;20864;-76
2021/12/08 12:26:36;;;;;;;7.43;2.27;;;9.70;99.90;;;;;;5027138;28;20434;-76
2021/12/08 12:29:36;;;;;;;7.03;2.17;;;9.90;99.90;;;;;;4985833;28;20945;-76
2021/12/08 12:32:13;;;;;;;3.43;1.70;;;9.90;99.90;;;;;;5022175;28;20482;-76
2021/12/08 12:34:39;;;;;;;5.13;1.60;;;9.90;99.90;;;;;;5028466;28;20833;-76
2021/12/08 12:37:30;;;;;;;3.80;1.87;;;10.00;99.90;;;;;;5029714;28;20437;-76
2021/12/08 12:39:58;;;;;;;6.93;2.30;;;10.00;99.90;;;;;;5029916;28;20537;-76
2021/12/08 12:42:25;;;;;;;7.40;1.97;;;10.10;99.90;;;;;;5029870;28;20869;-75
2021/12/08 12:45:01;;;;;;;5.27;2.47;;;10.00;99.90;;;;;;5030424;28;20514;-75
2021/12/08 12:47:28;;;;;;;3.57;1.93;;;10.00;99.90;;;;;;5027115;28;20451;-76
2021/12/08 12:50:16;;;;;;;4.10;1.70;;;9.90;99.90;;;;;;5028435;28;20446;-76
2021/12/08 12:53:00;;;;;;;4.70;1.67;;;9.90;99.90;;;;;;5030332;28;20442;-76
2021/12/08 12:55:29;;;;;;;6.53;1.93;;;9.90;99.90;;;;;;5029931;28;20493;-76
2021/12/08 12:58:04;;;;;;;6.27;1.60;;;9.80;99.90;;;;;;5029909;28;20423;-76
2021/12/08 13:00:43;;;;;;;4.67;1.77;;;9.80;99.90;;;;;;5029111;28;20481;-76
2021/12/08 13:03:29;;;;;;;5.37;1.80;;;9.70;99.90;;;;;;5029772;28;20878;-76
2021/12/08 13:05:55;;;;;;;4.80;2.20;;;9.60;99.90;;;;;;5029539;28;20797;-75
2021/12/08 13:08:43;;;;;;;4.37;1.43;;;9.50;99.90;;;;;;5029716;28;20431;-75
2021/12/08 13:11:33;;;;;;;4.73;1.50;;;9.50;99.90;;;;;;5030827;28;20474;-75
2021/12/08 13:13:59;;;;;;;4.67;1.70;;;9.40;99.90;;;;;;5033402;28;20806;-76
2021/12/08 13:16:33;;;;;;;3.13;1.40;;;9.20;99.90;;;;;;5033237;28;20509;-75
2021/12/08 13:19:03;;;;;;;4.67;1.23;;;9.10;99.90;;;;;;5033183;28;20437;-76
2021/12/08 13:21:39;;;;;;;8.43;2.63;;;9.10;99.90;;;;;;5033460;28;20455;-76
2021/12/08 13:24:25;;;;;;;5.10;1.60;;;9.10;99.90;;;;;;5032880;28;20465;-76
2021/12/08 13:27:04;;;;;;;2.90;1.63;;;9.10;99.90;;;;;;5032923;28;20434;-76
2021/12/08 13:29:33;;;;;;;3.80;1.60;;;9.10;99.90;;;;;;5032975;28;20430;-76
2021/12/08 13:32:10;;;;;;;3.83;1.30;;;9.00;99.90;;;;;;5032696;28;20470;-76
2021/12/08 13:34:37;;;;;;;3.70;1.87;;;9.00;99.90;;;;;;5032989;28;20471;-76
2021/12/08 13:37:29;;;;;;;3.83;1.57;;;9.10;99.90;;;;;;5032729;28;20434;-76
2021/12/08 13:40:09;;;;;;;4.97;1.47;;;9.10;99.90;;;;;;5032921;28;20427;-76
2021/12/08 13:42:50;;;;;;;4.30;1.30;;;9.10;99.90;;;;;;5032070;28;20460;-76
2021/12/08 13:45:17;;;;;;;5.17;1.33;;;9.10;99.90;;;;;;5032470;28;20418;-75
2021/12/08 13:47:46;;;;;;;3.70;1.87;;;9.00;99.90;;;;;;5032522;28;20513;-76
2021/12/08 13:50:19;;;;;;;5.70;1.60;;;9.10;99.90;;;;;;5032078;28;20466;-76
2021/12/08 13:53:06;;;;;;;7.97;1.33;;;9.00;99.90;;;;;;5032706;28;20443;-76
2021/12/08 13:55:34;;;;;;;4.00;1.73;;;9.00;99.90;;;;;;5031455;28;20427;-76
2021/12/08 13:58:04;;;;;;;3.20;1.37;;;9.00;99.90;;;;;;5032272;28;20427;-76
2021/12/08 14:00:36;;;;;;;3.30;1.37;;;8.90;99.90;;;;;;5031623;28;20486;-76
2021/12/08 14:03:05;;;;;;;5.37;2.27;;;8.90;99.90;;;;;;5032217;28;20453;-76
2021/12/08 14:05:45;;;;;;;4.50;1.60;;;8.80;99.90;;;;;;5032380;28;20427;-76
2021/12/08 14:08:28;;;;;;;3.30;1.20;;;8.80;99.90;;;;;;5032427;28;20430;-76
2021/12/08 14:10:56;;;;;;;3.90;1.70;;;8.90;99.90;;;;;;5031874;28;20524;-76
2021/12/08 14:13:26;;;;;;;3.10;1.37;;;8.80;99.90;;;;;;5031674;28;20500;-75
2021/12/08 14:16:00;;;;;;;6.10;1.80;;;8.90;99.90;;;;;;5032043;28;20530;-76
2021/12/08 14:18:28;;;;;;;4.33;1.40;;;8.80;99.90;;;;;;5032149;28;20464;-76